sensor_id;sensor_type;location;lat;lon;timestamp;temperature;humidity
18163;DHT22;9206;50.994;4.538;2023-03-01T00:01:59;-0.90;99.90
18163;DHT22;9206;50.994;4.538;2023-03-01T00:04:47;-1.00;99.90
18163;DHT22;9206;50.994;4.538;2023-03-01T00:07:42;-1.10;99.90
18163;DHT22;9206;50.994;4.538;2023-03-01T00:10:31;-1.00;99.90
18163;DHT22;9206;50.994;4.538;2023-03-01T00:13:24;-1.00;99.90
18163;DHT22;9206;50.994;4.538;2023-03-01T00:16:15;-1.10;99.90
18163;DHT22;9206;50.994;4.538;2023-03-01T00:19:02;-1.20;99.90
18163;DHT22;9206;50.994;4.538;2023-03-01T00:21:53;-1.30;99.90
18163;DHT22;9206;50.994;4.538;2023-03-01T00:24:42;-1.40;99.90
18163;DHT22;9206;50.994;4.538;2023-03-01T00:27:29;-1.50;99.90
18163;DHT22;9206;50.994;4.538;2023-03-01T00:30:18;-1.60;99.90
18163;DHT22;9206;50.994;4.538;2023-03-01T00:33:08;-1.60;99.90
18163;DHT22;9206;50.994;4.538;2023-03-01T00:35:58;-1.70;99.90
18163;DHT22;9206;50.994;4.538;2023-03-01T00:38:46;-1.70;99.90
18163;DHT22;9206;50.994;4.538;2023-03-01T00:41:45;-1.80;99.90
18163;DHT22;9206;50.994;4.538;2023-03-01T00:44:33;-1.80;99.90
18163;DHT22;9206;50.994;4.538;2023-03-01T00:47:23;-1.90;99.90
18163;DHT22;9206;50.994;4.538;2023-03-01T00:50:17;-1.90;99.90
18163;DHT22;9206;50.994;4.538;2023-03-01T00:53:05;-1.90;99.90
18163;DHT22;9206;50.994;4.538;2023-03-01T00:55:52;-1.90;99.90
18163;DHT22;9206;50.994;4.538;2023-03-01T00:58:47;-2.00;99.90
18163;DHT22;9206;50.994;4.538;2023-03-01T01:01:37;-2.00;99.90
18163;DHT22;9206;50.994;4.538;2023-03-01T01:04:25;-2.00;99.90
18163;DHT22;9206;50.994;4.538;2023-03-01T01:07:13;-2.00;99.90
18163;DHT22;9206;50.994;4.538;2023-03-01T01:10:03;-2.00;99.90
18163;DHT22;9206;50.994;4.538;2023-03-01T01:12:50;-2.00;99.90
18163;DHT22;9206;50.994;4.538;2023-03-01T01:15:39;-1.90;99.90
18163;DHT22;9206;50.994;4.538;2023-03-01T01:18:32;-2.00;99.90
18163;DHT22;9206;50.994;4.538;2023-03-01T01:21:21;-2.00;99.90
18163;DHT22;9206;50.994;4.538;2023-03-01T01:24:09;-2.00;99.90
18163;DHT22;9206;50.994;4.538;2023-03-01T01:26:58;-2.00;99.90
18163;DHT22;9206;50.994;4.538;2023-03-01T01:29:46;-2.00;99.90
18163;DHT22;9206;50.994;4.538;2023-03-01T01:32:41;-2.00;99.90
18163;DHT22;9206;50.994;4.538;2023-03-01T01:35:28;-2.00;99.90
18163;DHT22;9206;50.994;4.538;2023-03-01T01:38:18;-2.00;99.90
18163;DHT22;9206;50.994;4.538;2023-03-01T01:41:07;-2.00;99.90
18163;DHT22;9206;50.994;4.538;2023-03-01T01:44:18;-1.90;99.90
18163;DHT22;9206;50.994;4.538;2023-03-01T01:47:14;-2.00;99.90
18163;DHT22;9206;50.994;4.538;2023-03-01T01:50:14;-2.00;99.90
18163;DHT22;9206;50.994;4.538;2023-03-01T01:53:11;-2.00;99.90
18163;DHT22;9206;50.994;4.538;2023-03-01T01:56:00;-2.00;99.90
18163;DHT22;9206;50.994;4.538;2023-03-01T01:58:49;-2.00;99.90
18163;DHT22;9206;50.994;4.538;2023-03-01T02:01:37;-2.10;99.90
18163;DHT22;9206;50.994;4.538;2023-03-01T02:04:31;-2.20;99.90
18163;DHT22;9206;50.994;4.538;2023-03-01T02:07:22;-2.30;99.90
18163;DHT22;9206;50.994;4.538;2023-03-01T02:10:10;-2.30;99.90
18163;DHT22;9206;50.994;4.538;2023-03-01T02:13:00;-2.40;99.90
18163;DHT22;9206;50.994;4.538;2023-03-01T02:15:52;-2.50;99.90
18163;DHT22;9206;50.994;4.538;2023-03-01T02:18:40;-2.50;99.90
18163;DHT22;9206;50.994;4.538;2023-03-01T02:21:40;-2.60;99.90
18163;DHT22;9206;50.994;4.538;2023-03-01T02:24:49;-2.60;99.90
18163;DHT22;9206;50.994;4.538;2023-03-01T02:27:45;-2.70;99.90
18163;DHT22;9206;50.994;4.538;2023-03-01T02:30:41;-2.70;99.90
18163;DHT22;9206;50.994;4.538;2023-03-01T02:33:51;-2.70;99.90
18163;DHT22;9206;50.994;4.538;2023-03-01T02:36:43;-2.70;99.90
18163;DHT22;9206;50.994;4.538;2023-03-01T02:39:37;-2.80;99.90
18163;DHT22;9206;50.994;4.538;2023-03-01T02:42:40;-2.80;99.90
18163;DHT22;9206;50.994;4.538;2023-03-01T02:45:34;-2.90;99.90
18163;DHT22;9206;50.994;4.538;2023-03-01T02:48:22;-2.90;99.90
18163;DHT22;9206;50.994;4.538;2023-03-01T02:51:21;-2.90;99.90
18163;DHT22;9206;50.994;4.538;2023-03-01T02:54:18;-2.90;99.90
18163;DHT22;9206;50.994;4.538;2023-03-01T02:57:09;-3.00;99.90
18163;DHT22;9206;50.994;4.538;2023-03-01T03:00:05;-3.00;99.90
18163;DHT22;9206;50.994;4.538;2023-03-01T03:03:00;-3.00;99.90
18163;DHT22;9206;50.994;4.538;2023-03-01T03:05:50;-3.00;99.90
18163;DHT22;9206;50.994;4.538;2023-03-01T03:08:37;-3.00;99.90
18163;DHT22;9206;50.994;4.538;2023-03-01T03:11:26;-3.00;99.90
18163;DHT22;9206;50.994;4.538;2023-03-01T03:14:15;-3.00;99.90
18163;DHT22;9206;50.994;4.538;2023-03-01T03:17:03;-3.00;99.90
18163;DHT22;9206;50.994;4.538;2023-03-01T03:19:52;-3.00;99.90
18163;DHT22;9206;50.994;4.538;2023-03-01T03:22:41;-3.00;99.90
18163;DHT22;9206;50.994;4.538;2023-03-01T03:25:32;-3.10;99.90
18163;DHT22;9206;50.994;4.538;2023-03-01T03:28:24;-3.10;99.90
18163;DHT22;9206;50.994;4.538;2023-03-01T03:31:15;-3.00;99.90
18163;DHT22;9206;50.994;4.538;2023-03-01T03:34:04;-3.00;99.90
18163;DHT22;9206;50.994;4.538;2023-03-01T03:36:57;-2.90;99.90
18163;DHT22;9206;50.994;4.538;2023-03-01T03:39:46;-2.90;99.90
18163;DHT22;9206;50.994;4.538;2023-03-01T03:42:39;-2.80;99.90
18163;DHT22;9206;50.994;4.538;2023-03-01T03:45:27;-2.80;99.90
18163;DHT22;9206;50.994;4.538;2023-03-01T03:48:16;-2.80;99.90
18163;DHT22;9206;50.994;4.538;2023-03-01T03:51:09;-2.80;99.90
18163;DHT22;9206;50.994;4.538;2023-03-01T03:54:02;-2.80;99.90
18163;DHT22;9206;50.994;4.538;2023-03-01T03:56:51;-2.80;99.90
18163;DHT22;9206;50.994;4.538;2023-03-01T03:59:44;-2.80;99.90
18163;DHT22;9206;50.994;4.538;2023-03-01T04:02:32;-2.80;99.90
18163;DHT22;9206;50.994;4.538;2023-03-01T04:05:27;-2.80;99.90
18163;DHT22;9206;50.994;4.538;2023-03-01T04:08:14;-2.90;99.90
18163;DHT22;9206;50.994;4.538;2023-03-01T04:11:26;-2.90;99.90
18163;DHT22;9206;50.994;4.538;2023-03-01T04:14:15;-3.00;99.90
18163;DHT22;9206;50.994;4.538;2023-03-01T04:17:03;-3.10;99.90
18163;DHT22;9206;50.994;4.538;2023-03-01T04:19:51;-3.20;99.90
18163;DHT22;9206;50.994;4.538;2023-03-01T04:22:40;-3.20;99.90
18163;DHT22;9206;50.994;4.538;2023-03-01T04:25:34;-3.30;99.90
18163;DHT22;9206;50.994;4.538;2023-03-01T04:28:25;-3.40;99.90
18163;DHT22;9206;50.994;4.538;2023-03-01T04:31:17;-3.40;99.90
18163;DHT22;9206;50.994;4.538;2023-03-01T04:34:12;-3.50;99.90
18163;DHT22;9206;50.994;4.538;2023-03-01T04:37:05;-3.50;99.90
18163;DHT22;9206;50.994;4.538;2023-03-01T04:39:58;-3.50;99.90
18163;DHT22;9206;50.994;4.538;2023-03-01T04:42:46;-3.50;99.90
18163;DHT22;9206;50.994;4.538;2023-03-01T04:45:36;-3.50;99.90
18163;DHT22;9206;50.994;4.538;2023-03-01T04:48:25;-3.50;99.90
18163;DHT22;9206;50.994;4.538;2023-03-01T04:51:13;-3.40;99.90
18163;DHT22;9206;50.994;4.538;2023-03-01T04:54:03;-3.40;99.90
18163;DHT22;9206;50.994;4.538;2023-03-01T04:57:00;-3.40;99.90
18163;DHT22;9206;50.994;4.538;2023-03-01T04:59:51;-3.50;99.90
18163;DHT22;9206;50.994;4.538;2023-03-01T05:02:38;-3.40;99.90
18163;DHT22;9206;50.994;4.538;2023-03-01T05:05:33;-3.40;99.90
18163;DHT22;9206;50.994;4.538;2023-03-01T05:08:22;-3.40;99.90
18163;DHT22;9206;50.994;4.538;2023-03-01T05:11:16;-3.40;99.90
18163;DHT22;9206;50.994;4.538;2023-03-01T05:14:05;-3.50;99.90
18163;DHT22;9206;50.994;4.538;2023-03-01T05:16:53;-3.40;99.90
18163;DHT22;9206;50.994;4.538;2023-03-01T05:19:43;-3.50;99.90
18163;DHT22;9206;50.994;4.538;2023-03-01T05:22:39;-3.50;99.90
18163;DHT22;9206;50.994;4.538;2023-03-01T05:25:28;-3.40;99.90
18163;DHT22;9206;50.994;4.538;2023-03-01T05:28:20;-3.50;99.90
18163;DHT22;9206;50.994;4.538;2023-03-01T05:31:13;-3.50;99.90
18163;DHT22;9206;50.994;4.538;2023-03-01T05:34:07;-3.50;99.90
18163;DHT22;9206;50.994;4.538;2023-03-01T05:36:56;-3.50;99.90
18163;DHT22;9206;50.994;4.538;2023-03-01T05:39:48;-3.60;99.90
18163;DHT22;9206;50.994;4.538;2023-03-01T05:42:37;-3.70;99.90
18163;DHT22;9206;50.994;4.538;2023-03-01T05:45:27;-3.80;99.90
18163;DHT22;9206;50.994;4.538;2023-03-01T05:48:17;-3.80;99.90
18163;DHT22;9206;50.994;4.538;2023-03-01T05:51:07;-3.90;99.90
18163;DHT22;9206;50.994;4.538;2023-03-01T05:53:57;-3.90;99.90
18163;DHT22;9206;50.994;4.538;2023-03-01T05:56:57;-4.00;99.90
18163;DHT22;9206;50.994;4.538;2023-03-01T05:59:50;-4.10;99.90
18163;DHT22;9206;50.994;4.538;2023-03-01T06:02:41;-4.10;99.90
18163;DHT22;9206;50.994;4.538;2023-03-01T06:05:29;-4.10;99.90
18163;DHT22;9206;50.994;4.538;2023-03-01T06:08:18;-4.20;99.90
18163;DHT22;9206;50.994;4.538;2023-03-01T06:11:08;-4.20;99.90
18163;DHT22;9206;50.994;4.538;2023-03-01T06:14:07;-4.20;99.90
18163;DHT22;9206;50.994;4.538;2023-03-01T06:17:02;-4.20;99.90
18163;DHT22;9206;50.994;4.538;2023-03-01T06:19:59;-4.20;99.90
18163;DHT22;9206;50.994;4.538;2023-03-01T06:22:50;-4.30;99.90
18163;DHT22;9206;50.994;4.538;2023-03-01T06:25:37;-4.30;99.90
18163;DHT22;9206;50.994;4.538;2023-03-01T06:28:26;-4.30;99.90
18163;DHT22;9206;50.994;4.538;2023-03-01T06:31:16;-4.30;99.90
18163;DHT22;9206;50.994;4.538;2023-03-01T06:34:05;-4.20;99.90
18163;DHT22;9206;50.994;4.538;2023-03-01T06:36:54;-4.20;99.90
18163;DHT22;9206;50.994;4.538;2023-03-01T06:39:42;-4.20;99.90
18163;DHT22;9206;50.994;4.538;2023-03-01T06:42:32;-4.20;99.90
18163;DHT22;9206;50.994;4.538;2023-03-01T06:45:22;-4.20;99.90
18163;DHT22;9206;50.994;4.538;2023-03-01T06:48:14;-4.20;99.90
18163;DHT22;9206;50.994;4.538;2023-03-01T06:51:05;-4.20;99.90
18163;DHT22;9206;50.994;4.538;2023-03-01T06:53:58;-4.20;99.90
18163;DHT22;9206;50.994;4.538;2023-03-01T06:56:46;-4.10;99.90
18163;DHT22;9206;50.994;4.538;2023-03-01T06:59:36;-4.10;99.90
18163;DHT22;9206;50.994;4.538;2023-03-01T07:02:31;-4.00;99.90
18163;DHT22;9206;50.994;4.538;2023-03-01T07:05:22;-4.00;99.90
18163;DHT22;9206;50.994;4.538;2023-03-01T07:08:10;-3.90;99.90
18163;DHT22;9206;50.994;4.538;2023-03-01T07:11:00;-3.80;99.90
18163;DHT22;9206;50.994;4.538;2023-03-01T07:13:55;-3.70;99.90
18163;DHT22;9206;50.994;4.538;2023-03-01T07:16:47;-3.60;99.90
18163;DHT22;9206;50.994;4.538;2023-03-01T07:19:36;-3.50;99.90
18163;DHT22;9206;50.994;4.538;2023-03-01T07:22:31;-3.40;99.90
18163;DHT22;9206;50.994;4.538;2023-03-01T07:25:21;-3.40;99.90
18163;DHT22;9206;50.994;4.538;2023-03-01T07:28:10;-3.20;99.90
18163;DHT22;9206;50.994;4.538;2023-03-01T07:31:01;-3.10;99.90
18163;DHT22;9206;50.994;4.538;2023-03-01T07:33:49;-2.90;99.90
18163;DHT22;9206;50.994;4.538;2023-03-01T07:36:42;-2.80;99.90
18163;DHT22;9206;50.994;4.538;2023-03-01T07:39:33;-2.60;99.90
18163;DHT22;9206;50.994;4.538;2023-03-01T07:42:28;-2.50;99.90
18163;DHT22;9206;50.994;4.538;2023-03-01T07:45:16;-2.30;99.90
18163;DHT22;9206;50.994;4.538;2023-03-01T07:48:04;-2.00;99.90
18163;DHT22;9206;50.994;4.538;2023-03-01T07:50:52;-1.90;99.90
18163;DHT22;9206;50.994;4.538;2023-03-01T07:53:41;-1.80;99.90
18163;DHT22;9206;50.994;4.538;2023-03-01T07:56:30;-1.60;99.90
18163;DHT22;9206;50.994;4.538;2023-03-01T07:59:18;-1.40;99.90
18163;DHT22;9206;50.994;4.538;2023-03-01T08:02:11;-1.40;99.90
18163;DHT22;9206;50.994;4.538;2023-03-01T08:05:04;-1.20;99.90
18163;DHT22;9206;50.994;4.538;2023-03-01T08:07:54;-1.00;99.90
18163;DHT22;9206;50.994;4.538;2023-03-01T08:10:41;-0.80;99.90
18163;DHT22;9206;50.994;4.538;2023-03-01T08:13:34;-0.70;99.90
18163;DHT22;9206;50.994;4.538;2023-03-01T08:16:27;-0.60;99.90
18163;DHT22;9206;50.994;4.538;2023-03-01T08:19:20;-0.40;99.90
18163;DHT22;9206;50.994;4.538;2023-03-01T08:22:09;-0.30;99.90
18163;DHT22;9206;50.994;4.538;2023-03-01T08:25:02;-0.10;99.90
18163;DHT22;9206;50.994;4.538;2023-03-01T08:27:51;0.00;99.90
18163;DHT22;9206;50.994;4.538;2023-03-01T08:30:46;0.10;99.90
18163;DHT22;9206;50.994;4.538;2023-03-01T08:33:34;0.30;99.90
18163;DHT22;9206;50.994;4.538;2023-03-01T08:36:27;0.40;99.90
18163;DHT22;9206;50.994;4.538;2023-03-01T08:39:21;0.50;99.90
18163;DHT22;9206;50.994;4.538;2023-03-01T08:42:08;1.40;99.90
18163;DHT22;9206;50.994;4.538;2023-03-01T08:44:56;3.40;99.90
18163;DHT22;9206;50.994;4.538;2023-03-01T08:47:46;5.10;99.90
18163;DHT22;9206;50.994;4.538;2023-03-01T08:50:36;7.10;99.90
18163;DHT22;9206;50.994;4.538;2023-03-01T08:53:24;8.40;99.90
18163;DHT22;9206;50.994;4.538;2023-03-01T08:56:13;9.50;99.90
18163;DHT22;9206;50.994;4.538;2023-03-01T08:59:03;9.40;99.90
18163;DHT22;9206;50.994;4.538;2023-03-01T09:01:52;10.40;99.90
18163;DHT22;9206;50.994;4.538;2023-03-01T09:04:43;10.80;99.90
18163;DHT22;9206;50.994;4.538;2023-03-01T09:07:35;11.60;99.90
18163;DHT22;9206;50.994;4.538;2023-03-01T09:10:23;12.50;99.90
18163;DHT22;9206;50.994;4.538;2023-03-01T09:13:11;12.80;99.90
18163;DHT22;9206;50.994;4.538;2023-03-01T09:16:05;12.90;99.90
18163;DHT22;9206;50.994;4.538;2023-03-01T09:18:55;12.00;99.90
18163;DHT22;9206;50.994;4.538;2023-03-01T09:21:44;11.80;99.90
18163;DHT22;9206;50.994;4.538;2023-03-01T09:24:40;12.00;99.90
18163;DHT22;9206;50.994;4.538;2023-03-01T09:27:29;12.40;99.90
18163;DHT22;9206;50.994;4.538;2023-03-01T09:30:18;13.50;99.90
18163;DHT22;9206;50.994;4.538;2023-03-01T09:33:06;13.80;99.90
18163;DHT22;9206;50.994;4.538;2023-03-01T09:36:04;13.80;99.90
18163;DHT22;9206;50.994;4.538;2023-03-01T09:38:53;13.00;99.90
18163;DHT22;9206;50.994;4.538;2023-03-01T09:41:47;13.00;99.90
18163;DHT22;9206;50.994;4.538;2023-03-01T09:44:39;13.30;99.90
18163;DHT22;9206;50.994;4.538;2023-03-01T09:47:29;13.20;99.90
18163;DHT22;9206;50.994;4.538;2023-03-01T09:50:41;13.50;99.90
18163;DHT22;9206;50.994;4.538;2023-03-01T09:53:38;13.50;99.90
18163;DHT22;9206;50.994;4.538;2023-03-01T09:56:30;14.20;99.90
18163;DHT22;9206;50.994;4.538;2023-03-01T09:59:28;14.90;99.50
18163;DHT22;9206;50.994;4.538;2023-03-01T10:02:28;13.70;99.40
18163;DHT22;9206;50.994;4.538;2023-03-01T10:05:36;13.60;99.90
18163;DHT22;9206;50.994;4.538;2023-03-01T10:08:36;12.60;99.90
18163;DHT22;9206;50.994;4.538;2023-03-01T10:11:36;11.70;99.90
18163;DHT22;9206;50.994;4.538;2023-03-01T10:14:30;12.20;99.90
18163;DHT22;9206;50.994;4.538;2023-03-01T10:17:30;13.20;99.90
18163;DHT22;9206;50.994;4.538;2023-03-01T10:20:22;12.90;99.90
18163;DHT22;9206;50.994;4.538;2023-03-01T10:23:13;13.10;99.70
18163;DHT22;9206;50.994;4.538;2023-03-01T10:26:25;12.60;99.70
18163;DHT22;9206;50.994;4.538;2023-03-01T10:29:25;12.70;99.90
18163;DHT22;9206;50.994;4.538;2023-03-01T10:32:14;13.50;99.80
18163;DHT22;9206;50.994;4.538;2023-03-01T10:35:13;12.70;99.20
18163;DHT22;9206;50.994;4.538;2023-03-01T10:38:10;12.50;99.90
18163;DHT22;9206;50.994;4.538;2023-03-01T10:41:06;13.00;99.20
18163;DHT22;9206;50.994;4.538;2023-03-01T10:43:56;13.50;99.60
18163;DHT22;9206;50.994;4.538;2023-03-01T10:46:59;13.10;98.30
18163;DHT22;9206;50.994;4.538;2023-03-01T10:50:00;12.80;99.40
18163;DHT22;9206;50.994;4.538;2023-03-01T10:52:59;12.20;98.50
18163;DHT22;9206;50.994;4.538;2023-03-01T10:55:58;12.00;99.00
18163;DHT22;9206;50.994;4.538;2023-03-01T10:58:59;11.90;99.30
18163;DHT22;9206;50.994;4.538;2023-03-01T11:02:02;12.70;98.90
18163;DHT22;9206;50.994;4.538;2023-03-01T11:04:59;13.30;99.10
18163;DHT22;9206;50.994;4.538;2023-03-01T11:07:57;14.10;97.90
18163;DHT22;9206;50.994;4.538;2023-03-01T11:10:45;14.10;97.60
18163;DHT22;9206;50.994;4.538;2023-03-01T11:13:50;14.00;97.40
18163;DHT22;9206;50.994;4.538;2023-03-01T11:16:45;14.10;97.60
18163;DHT22;9206;50.994;4.538;2023-03-01T11:19:34;14.50;97.50
18163;DHT22;9206;50.994;4.538;2023-03-01T11:22:27;15.70;96.10
18163;DHT22;9206;50.994;4.538;2023-03-01T11:25:25;16.60;95.30
18163;DHT22;9206;50.994;4.538;2023-03-01T11:28:16;16.60;95.20
18163;DHT22;9206;50.994;4.538;2023-03-01T11:31:16;16.20;94.00
18163;DHT22;9206;50.994;4.538;2023-03-01T11:34:12;17.10;93.90
18163;DHT22;9206;50.994;4.538;2023-03-01T11:37:10;15.70;93.60
18163;DHT22;9206;50.994;4.538;2023-03-01T11:40:05;15.90;94.00
18163;DHT22;9206;50.994;4.538;2023-03-01T11:43:06;16.40;93.10
18163;DHT22;9206;50.994;4.538;2023-03-01T11:49:49;15.50;93.00
18163;DHT22;9206;50.994;4.538;2023-03-01T11:52:46;15.40;93.80
18163;DHT22;9206;50.994;4.538;2023-03-01T11:55:53;15.70;92.90
18163;DHT22;9206;50.994;4.538;2023-03-01T11:59:06;15.70;93.00
18163;DHT22;9206;50.994;4.538;2023-03-01T12:02:29;16.50;93.10
18163;DHT22;9206;50.994;4.538;2023-03-01T12:05:45;16.80;93.00
18163;DHT22;9206;50.994;4.538;2023-03-01T12:08:44;17.40;91.80
18163;DHT22;9206;50.994;4.538;2023-03-01T12:11:43;17.90;92.00
18163;DHT22;9206;50.994;4.538;2023-03-01T12:14:59;18.00;90.40
18163;DHT22;9206;50.994;4.538;2023-03-01T12:18:02;16.70;91.40
18163;DHT22;9206;50.994;4.538;2023-03-01T12:21:02;17.50;90.20
18163;DHT22;9206;50.994;4.538;2023-03-01T12:24:23;17.50;90.40
18163;DHT22;9206;50.994;4.538;2023-03-01T12:27:34;17.40;91.00
18163;DHT22;9206;50.994;4.538;2023-03-01T12:30:43;17.40;90.10
18163;DHT22;9206;50.994;4.538;2023-03-01T12:33:40;16.10;90.20
18163;DHT22;9206;50.994;4.538;2023-03-01T12:37:01;16.40;91.50
18163;DHT22;9206;50.994;4.538;2023-03-01T12:40:14;16.30;90.60
18163;DHT22;9206;50.994;4.538;2023-03-01T12:43:15;16.50;90.70
18163;DHT22;9206;50.994;4.538;2023-03-01T12:46:15;17.90;90.40
18163;DHT22;9206;50.994;4.538;2023-03-01T12:49:09;18.90;88.90
18163;DHT22;9206;50.994;4.538;2023-03-01T12:52:16;19.60;87.90
18163;DHT22;9206;50.994;4.538;2023-03-01T12:55:19;19.10;86.70
18163;DHT22;9206;50.994;4.538;2023-03-01T12:58:22;18.70;85.40
18163;DHT22;9206;50.994;4.538;2023-03-01T13:01:19;18.20;84.50
18163;DHT22;9206;50.994;4.538;2023-03-01T13:04:28;17.30;86.40
18163;DHT22;9206;50.994;4.538;2023-03-01T13:07:28;15.60;86.40
18163;DHT22;9206;50.994;4.538;2023-03-01T13:10:22;16.10;87.20
18163;DHT22;9206;50.994;4.538;2023-03-01T13:13:19;16.40;86.30
18163;DHT22;9206;50.994;4.538;2023-03-01T13:19:35;15.50;87.50
18163;DHT22;9206;50.994;4.538;2023-03-01T13:22:33;16.30;89.70
18163;DHT22;9206;50.994;4.538;2023-03-01T13:25:25;17.10;88.10
18163;DHT22;9206;50.994;4.538;2023-03-01T13:28:36;18.30;88.40
18163;DHT22;9206;50.994;4.538;2023-03-01T13:35:00;18.20;86.40
18163;DHT22;9206;50.994;4.538;2023-03-01T13:37:51;16.00;88.20
18163;DHT22;9206;50.994;4.538;2023-03-01T13:40:59;15.40;89.00
18163;DHT22;9206;50.994;4.538;2023-03-01T13:43:50;15.30;89.20
18163;DHT22;9206;50.994;4.538;2023-03-01T13:46:44;14.80;89.00
18163;DHT22;9206;50.994;4.538;2023-03-01T13:49:36;14.60;90.10
18163;DHT22;9206;50.994;4.538;2023-03-01T13:52:39;13.90;90.10
18163;DHT22;9206;50.994;4.538;2023-03-01T13:55:36;14.80;90.90
18163;DHT22;9206;50.994;4.538;2023-03-01T13:58:26;14.80;90.40
18163;DHT22;9206;50.994;4.538;2023-03-01T14:01:23;14.30;90.60
18163;DHT22;9206;50.994;4.538;2023-03-01T14:04:21;13.70;91.40
18163;DHT22;9206;50.994;4.538;2023-03-01T14:07:12;13.30;91.20
18163;DHT22;9206;50.994;4.538;2023-03-01T14:10:06;13.10;91.40
18163;DHT22;9206;50.994;4.538;2023-03-01T14:13:04;11.70;91.80
18163;DHT22;9206;50.994;4.538;2023-03-01T14:16:11;11.40;92.10
18163;DHT22;9206;50.994;4.538;2023-03-01T14:19:09;11.60;92.60
18163;DHT22;9206;50.994;4.538;2023-03-01T14:22:05;11.40;91.90
18163;DHT22;9206;50.994;4.538;2023-03-01T14:25:02;11.30;93.60
18163;DHT22;9206;50.994;4.538;2023-03-01T14:28:04;12.30;93.40
18163;DHT22;9206;50.994;4.538;2023-03-01T14:31:00;12.90;92.90
18163;DHT22;9206;50.994;4.538;2023-03-01T14:33:56;13.30;92.00
18163;DHT22;9206;50.994;4.538;2023-03-01T14:36:43;13.00;92.20
18163;DHT22;9206;50.994;4.538;2023-03-01T14:39:33;13.40;93.10
18163;DHT22;9206;50.994;4.538;2023-03-01T14:42:27;14.10;91.90
18163;DHT22;9206;50.994;4.538;2023-03-01T14:45:16;14.80;91.70
18163;DHT22;9206;50.994;4.538;2023-03-01T14:48:07;14.80;91.90
18163;DHT22;9206;50.994;4.538;2023-03-01T14:51:04;14.80;91.40
18163;DHT22;9206;50.994;4.538;2023-03-01T14:53:53;14.90;91.40
18163;DHT22;9206;50.994;4.538;2023-03-01T14:56:52;14.10;91.50
18163;DHT22;9206;50.994;4.538;2023-03-01T14:59:45;13.80;91.40
18163;DHT22;9206;50.994;4.538;2023-03-01T15:02:37;13.60;91.40
18163;DHT22;9206;50.994;4.538;2023-03-01T15:05:29;14.30;91.50
18163;DHT22;9206;50.994;4.538;2023-03-01T15:08:22;14.60;91.90
18163;DHT22;9206;50.994;4.538;2023-03-01T15:11:20;14.50;91.30
18163;DHT22;9206;50.994;4.538;2023-03-01T15:14:39;14.10;91.80
18163;DHT22;9206;50.994;4.538;2023-03-01T15:17:31;14.30;92.00
18163;DHT22;9206;50.994;4.538;2023-03-01T15:20:19;14.20;91.50
18163;DHT22;9206;50.994;4.538;2023-03-01T15:23:20;13.40;91.40
18163;DHT22;9206;50.994;4.538;2023-03-01T15:26:23;13.30;92.80
18163;DHT22;9206;50.994;4.538;2023-03-01T15:29:22;13.70;92.90
18163;DHT22;9206;50.994;4.538;2023-03-01T15:32:28;13.90;92.20
18163;DHT22;9206;50.994;4.538;2023-03-01T15:35:40;13.60;92.30
18163;DHT22;9206;50.994;4.538;2023-03-01T15:38:51;13.50;92.10
18163;DHT22;9206;50.994;4.538;2023-03-01T15:41:47;13.00;91.60
18163;DHT22;9206;50.994;4.538;2023-03-01T15:44:36;12.40;92.60
18163;DHT22;9206;50.994;4.538;2023-03-01T15:47:29;12.00;93.00
18163;DHT22;9206;50.994;4.538;2023-03-01T15:50:26;11.90;93.00
18163;DHT22;9206;50.994;4.538;2023-03-01T15:53:19;11.60;93.00
18163;DHT22;9206;50.994;4.538;2023-03-01T15:56:08;11.10;93.40
18163;DHT22;9206;50.994;4.538;2023-03-01T15:59:02;10.70;93.60
18163;DHT22;9206;50.994;4.538;2023-03-01T16:01:53;10.30;93.90
18163;DHT22;9206;50.994;4.538;2023-03-01T16:04:41;10.00;93.90
18163;DHT22;9206;50.994;4.538;2023-03-01T16:07:28;9.40;94.30
18163;DHT22;9206;50.994;4.538;2023-03-01T16:10:18;9.00;95.00
18163;DHT22;9206;50.994;4.538;2023-03-01T16:13:09;8.60;96.10
18163;DHT22;9206;50.994;4.538;2023-03-01T16:15:57;8.30;96.50
18163;DHT22;9206;50.994;4.538;2023-03-01T16:18:55;8.10;97.50
18163;DHT22;9206;50.994;4.538;2023-03-01T16:21:43;7.90;97.20
18163;DHT22;9206;50.994;4.538;2023-03-01T16:24:34;7.80;97.90
18163;DHT22;9206;50.994;4.538;2023-03-01T16:27:28;7.60;98.00
18163;DHT22;9206;50.994;4.538;2023-03-01T16:30:20;7.50;98.60
18163;DHT22;9206;50.994;4.538;2023-03-01T16:33:08;7.40;99.30
18163;DHT22;9206;50.994;4.538;2023-03-01T16:36:05;7.30;99.40
18163;DHT22;9206;50.994;4.538;2023-03-01T16:38:54;7.30;99.90
18163;DHT22;9206;50.994;4.538;2023-03-01T16:41:43;7.20;99.90
18163;DHT22;9206;50.994;4.538;2023-03-01T16:44:31;7.10;99.90
18163;DHT22;9206;50.994;4.538;2023-03-01T16:47:22;7.00;99.90
18163;DHT22;9206;50.994;4.538;2023-03-01T16:50:10;6.90;99.90
18163;DHT22;9206;50.994;4.538;2023-03-01T16:52:58;6.80;99.90
18163;DHT22;9206;50.994;4.538;2023-03-01T16:55:55;6.80;99.90
18163;DHT22;9206;50.994;4.538;2023-03-01T16:58:46;6.70;99.90
18163;DHT22;9206;50.994;4.538;2023-03-01T17:01:33;6.60;99.90
18163;DHT22;9206;50.994;4.538;2023-03-01T17:04:24;6.50;99.90
18163;DHT22;9206;50.994;4.538;2023-03-01T17:07:26;6.40;99.90
18163;DHT22;9206;50.994;4.538;2023-03-01T17:10:14;6.40;99.90
18163;DHT22;9206;50.994;4.538;2023-03-01T17:13:09;6.20;99.90
18163;DHT22;9206;50.994;4.538;2023-03-01T17:16:02;6.10;99.90
18163;DHT22;9206;50.994;4.538;2023-03-01T17:18:55;6.10;99.90
18163;DHT22;9206;50.994;4.538;2023-03-01T17:21:52;6.00;99.90
18163;DHT22;9206;50.994;4.538;2023-03-01T17:24:54;5.90;99.90
18163;DHT22;9206;50.994;4.538;2023-03-01T17:28:01;5.70;99.90
18163;DHT22;9206;50.994;4.538;2023-03-01T17:31:05;5.60;99.90
18163;DHT22;9206;50.994;4.538;2023-03-01T17:33:56;5.50;99.90
18163;DHT22;9206;50.994;4.538;2023-03-01T17:36:45;5.40;99.90
18163;DHT22;9206;50.994;4.538;2023-03-01T17:39:36;5.30;99.90
18163;DHT22;9206;50.994;4.538;2023-03-01T17:42:25;5.20;99.90
18163;DHT22;9206;50.994;4.538;2023-03-01T17:45:12;5.10;99.90
18163;DHT22;9206;50.994;4.538;2023-03-01T17:48:06;5.00;99.90
18163;DHT22;9206;50.994;4.538;2023-03-01T17:51:00;4.80;99.90
18163;DHT22;9206;50.994;4.538;2023-03-01T17:53:52;4.70;99.90
18163;DHT22;9206;50.994;4.538;2023-03-01T17:56:41;4.60;99.90
18163;DHT22;9206;50.994;4.538;2023-03-01T17:59:38;4.50;99.90
18163;DHT22;9206;50.994;4.538;2023-03-01T18:02:37;4.40;99.90
18163;DHT22;9206;50.994;4.538;2023-03-01T18:05:27;4.30;99.90
18163;DHT22;9206;50.994;4.538;2023-03-01T18:08:20;4.20;99.90
18163;DHT22;9206;50.994;4.538;2023-03-01T18:11:08;4.10;99.90
18163;DHT22;9206;50.994;4.538;2023-03-01T18:14:00;4.00;99.90
18163;DHT22;9206;50.994;4.538;2023-03-01T18:16:53;3.90;99.90
18163;DHT22;9206;50.994;4.538;2023-03-01T18:19:42;3.80;99.90
18163;DHT22;9206;50.994;4.538;2023-03-01T18:22:30;3.80;99.90
18163;DHT22;9206;50.994;4.538;2023-03-01T18:25:23;3.70;99.90
18163;DHT22;9206;50.994;4.538;2023-03-01T18:28:17;3.60;99.90
18163;DHT22;9206;50.994;4.538;2023-03-01T18:31:07;3.50;99.90
18163;DHT22;9206;50.994;4.538;2023-03-01T18:33:58;3.50;99.90
18163;DHT22;9206;50.994;4.538;2023-03-01T18:36:49;3.40;99.90
18163;DHT22;9206;50.994;4.538;2023-03-01T18:39:44;3.30;99.90
18163;DHT22;9206;50.994;4.538;2023-03-01T18:42:32;3.20;99.90
18163;DHT22;9206;50.994;4.538;2023-03-01T18:45:19;3.20;99.90
18163;DHT22;9206;50.994;4.538;2023-03-01T18:48:08;3.10;99.90
18163;DHT22;9206;50.994;4.538;2023-03-01T18:51:19;3.00;99.90